Time;durP1;ratioP1;P1;durP2;ratioP2;P2;SDS_P1;SDS_P2;PMS_P1;PMS_P2;Temp;Humidity;BMP_temperature;BMP_pressure;BME280_temperature;BME280_humidity;BME280_pressure;Samples;Min_cycle;Max_cycle;Signal;HPM_P1;HPM_P2
2022/09/30 00:11:45;;;;;;;30.67;16.00;;;;;;;5.87;76.22;99424.00;31116020;28;96689;-62
2022/09/30 00:26:45;;;;;;;28.42;16.50;;;;;;;5.95;76.72;99434.59;31114743;28;97388;-70
2022/09/30 00:41:50;;;;;;;26.60;15.20;;;;;;;6.16;77.23;99452.72;31111916;28;112708;-69
2022/09/30 00:57:02;;;;;;;27.65;17.95;;;;;;;6.34;76.80;99459.72;31111859;28;96692;-69
2022/09/30 01:12:10;;;;;;;28.42;15.95;;;;;;;6.59;76.79;99469.38;31110277;28;96661;-67
2022/09/30 01:27:38;;;;;;;26.67;15.73;;;;;;;6.80;77.03;99461.97;31108752;28;96606;-64
2022/09/30 01:42:42;;;;;;;22.92;15.43;;;;;;;6.84;77.01;99452.72;31107343;28;96647;-61
2022/09/30 01:58:03;;;;;;;26.53;14.97;;;;;;;6.79;77.33;99450.53;31106103;28;97128;-65
2022/09/30 02:13:13;;;;;;;23.98;14.20;;;;;;;6.86;77.34;99453.38;31103570;28;96691;-67
2022/09/30 02:28:22;;;;;;;22.05;15.27;;;;;;;6.86;77.85;99459.50;31102716;28;96695;-70
2022/09/30 02:43:22;;;;;;;24.97;14.10;;;;;;;6.87;78.18;99460.31;31101151;28;97324;-69
2022/09/30 02:58:26;;;;;;;24.02;14.82;;;;;;;6.98;78.22;99465.28;31099962;28;96809;-71
2022/09/30 03:13:54;;;;;;;26.27;14.47;;;;;;;7.10;78.36;99487.00;31098803;28;96702;-66
2022/09/30 03:29:11;;;;;;;27.33;14.60;;;;;;;7.14;78.08;99492.78;31111515;28;96720;-68
2022/09/30 03:44:24;;;;;;;22.00;14.00;;;;;;;7.08;77.86;99495.09;31117212;28;96982;-70
2022/09/30 03:59:27;;;;;;;26.80;14.30;;;;;;;7.03;78.04;99512.50;31115925;28;97222;-68
2022/09/30 04:14:27;;;;;;;26.30;15.13;;;;;;;7.03;79.06;99515.94;31115030;28;97511;-67
2022/09/30 04:29:28;;;;;;;25.67;15.20;;;;;;;7.04;78.46;99508.81;31109497;28;112858;-63
2022/09/30 04:44:29;;;;;;;27.02;14.32;;;;;;;7.07;79.01;99514.63;31109100;28;96682;-65
2022/09/30 04:59:29;;;;;;;32.43;15.43;;;;;;;7.14;79.23;99525.41;31109353;28;97437;-66
2022/09/30 05:14:29;;;;;;;24.50;15.45;;;;;;;7.31;78.85;99563.31;31106102;28;98210;-72
2022/09/30 05:29:29;;;;;;;33.35;16.48;;;;;;;7.41;79.35;99590.50;31106176;28;98019;-72
2022/09/30 05:44:30;;;;;;;25.70;14.52;;;;;;;7.82;79.66;99608.25;31103403;28;101337;-69
2022/09/30 05:59:30;;;;;;;28.48;15.73;;;;;;;8.20;79.06;99599.72;31104578;28;96780;-65
2022/09/30 06:14:31;;;;;;;26.80;15.15;;;;;;;8.41;78.83;99625.72;31101132;28;115251;-70
2022/09/30 06:29:32;;;;;;;25.53;16.20;;;;;;;8.45;78.59;99651.78;31100752;28;97411;-68
2022/09/30 06:44:32;;;;;;;24.92;14.70;;;;;;;8.65;78.85;99662.00;31097986;28;96645;-68
2022/09/30 06:59:32;;;;;;;24.88;14.52;;;;;;;8.97;78.34;99665.56;31104979;28;98966;-68
2022/09/30 07:14:34;;;;;;;23.70;14.98;;;;;;;9.38;78.17;99678.63;31118217;28;97357;-70
2022/09/30 07:29:35;;;;;;;32.10;15.70;;;;;;;9.77;77.83;99687.53;31116943;28;96645;-70
2022/09/30 07:44:40;;;;;;;22.42;13.95;;;;;;;9.80;77.09;99713.75;31114116;28;101525;-68
2022/09/30 07:59:41;;;;;;;22.70;14.33;;;;;;;10.12;76.63;99727.84;31113252;28;97481;-71
2022/09/30 08:14:41;;;;;;;25.50;15.88;;;;;;;10.62;76.60;99739.75;31112407;28;96830;-68
2022/09/30 08:29:41;;;;;;;20.35;13.80;;;;;;;11.40;75.28;99741.19;31110379;28;96800;-69
2022/09/30 08:44:47;;;;;;;23.02;14.70;;;;;;;12.00;74.74;99752.56;31108284;28;119797;-70
2022/09/30 08:59:59;;;;;;;21.93;13.93;;;;;;;12.92;73.67;99760.72;31108635;28;97360;-71
2022/09/30 09:15:08;;;;;;;17.20;11.47;;;;;;;16.42;70.65;99788.00;31106760;28;96820;-64
2022/09/30 09:30:12;;;;;;;16.53;10.77;;;;;;;17.62;65.02;99783.31;31105533;28;97424;-68
2022/09/30 09:45:25;;;;;;;16.97;11.80;;;;;;;17.04;62.78;99781.91;31105549;28;96685;-63
2022/09/30 10:15:46;;;;;;;18.53;10.93;;;;;;;15.91;63.32;99795.16;31102580;28;97059;-71
2022/09/30 10:30:52;;;;;;;12.73;10.17;;;;;;;16.94;61.64;99798.56;31098997;28;97638;-70
2022/09/30 10:45:53;;;;;;;15.53;8.43;;;;;;;23.87;54.94;99795.41;31099034;28;97481;-67
2022/09/30 11:01:14;;;;;;;7.40;4.70;;;;;;;29.79;40.94;99802.72;31097624;28;97218;-65
2022/09/30 11:16:24;;;;;;;8.23;5.00;;;;;;;29.46;33.99;99793.84;31096020;28;96765;-66
2022/09/30 11:31:25;;;;;;;5.87;3.23;;;;;;;31.71;28.68;99788.44;31095695;28;97641;-67
2022/09/30 11:46:46;;;;;;;5.70;3.67;;;;;;;31.86;26.82;99785.25;31102691;28;96895;-67
2022/09/30 12:01:51;;;;;;;7.93;3.73;;;;;;;35.88;22.60;99786.16;31115527;28;97464;-68
2022/09/30 12:16:55;;;;;;;5.50;3.43;;;;;;;34.09;21.63;99798.34;31113212;28;97287;-64
2022/09/30 12:32:21;;;;;;;6.23;3.80;;;;;;;28.12;26.80;99821.63;31110757;28;98314;-65
2022/09/30 12:47:37;;;;;;;6.37;3.70;;;;;;;23.62;31.50;99826.88;31109387;28;96743;-71
2022/09/30 13:02:53;;;;;;;5.83;3.77;;;;;;;25.81;30.28;99811.81;31107850;28;96687;-65
2022/09/30 13:17:53;;;;;;;6.57;4.47;;;;;;;26.32;29.10;99816.16;31107012;28;96785;-62
2022/09/30 13:32:56;;;;;;;7.60;4.63;;;;;;;23.14;32.33;99813.31;31106100;28;107306;-66
2022/09/30 13:48:09;;;;;;;7.77;4.70;;;;;;;21.76;34.74;99796.63;31103704;28;96773;-67
2022/09/30 14:03:49;;;;;;;5.17;3.00;;;;;;;20.29;36.56;99818.31;31102980;28;96732;-62
2022/09/30 14:19:07;;;;;;;5.23;3.57;;;;;;;20.03;37.36;99806.22;31090784;28;97119;-70
2022/09/30 14:34:11;;;;;;;6.60;3.13;;;;;;;21.29;35.82;99830.44;31101410;28;97707;-68
2022/09/30 14:49:15;;;;;;;5.17;2.90;;;;;;;20.58;35.95;99826.34;31099165;28;96726;-67
2022/09/30 15:04:20;;;;;;;5.33;2.73;;;;;;;19.74;37.76;99835.91;31097469;28;97047;-68
2022/09/30 15:19:27;;;;;;;6.03;3.50;;;;;;;18.32;40.35;99829.69;31103794;28;96747;-65
2022/09/30 15:34:29;;;;;;;4.93;3.20;;;;;;;16.57;44.11;99844.97;31117583;28;96700;-69
2022/09/30 15:49:31;;;;;;;8.60;5.60;;;;;;;15.40;46.94;99863.88;31115337;28;97424;-63
2022/09/30 16:04:31;;;;;;;10.60;4.83;;;;;;;14.56;49.03;99847.41;31113283;28;96639;-65
2022/09/30 16:19:33;;;;;;;7.47;4.40;;;;;;;13.72;51.70;99860.16;31109589;28;97052;-63
2022/09/30 16:34:36;;;;;;;10.80;4.83;;;;;;;12.85;54.63;99899.69;31110168;28;96782;-62
2022/09/30 16:49:36;;;;;;;12.30;6.10;;;;;;;12.03;56.61;99901.72;31106435;28;97648;-69
2022/09/30 17:04:38;;;;;;;12.77;8.50;;;;;;;11.33;59.15;99898.44;31107994;28;96697;-63
2022/09/30 17:19:38;;;;;;;18.93;10.83;;;;;;;10.79;60.99;99916.25;31106770;28;96805;-62
2022/09/30 17:34:40;;;;;;;24.52;13.30;;;;;;;10.36;63.17;99931.88;31106683;28;97276;-62
2022/09/30 17:49:41;;;;;;;20.43;11.37;;;;;;;9.97;64.33;99940.69;31100456;28;96602;-71
2022/09/30 18:04:41;;;;;;;25.98;14.77;;;;;;;9.65;65.54;99945.94;31102548;28;96673;-63
2022/09/30 18:19:41;;;;;;;26.52;14.68;;;;;;;9.40;66.82;99969.06;31101343;28;97772;-66
2022/09/30 18:34:42;;;;;;;30.05;15.00;;;;;;;9.16;67.74;99951.34;31100330;28;97311;-72
2022/09/30 18:49:43;;;;;;;21.20;12.07;;;;;;;9.02;68.83;99954.63;31100189;28;97124;-70
2022/09/30 19:04:44;;;;;;;17.52;11.00;;;;;;;8.83;69.43;99971.72;31097924;28;96836;-71
2022/09/30 19:19:45;;;;;;;26.27;17.17;;;;;;;8.64;70.71;99963.09;31098596;28;96592;-70
2022/09/30 19:34:46;;;;;;;26.58;15.23;;;;;;;8.51;71.34;99946.78;31095662;28;96683;-66
2022/09/30 19:49:46;;;;;;;25.60;14.85;;;;;;;8.41;72.10;99936.28;31096071;28;96874;-72
2022/09/30 20:04:47;;;;;;;23.40;14.88;;;;;;;8.32;72.77;99938.06;31099307;28;96789;-71
2022/09/30 20:20:33;;;;;;;29.23;19.77;;;;;;;8.26;73.02;99947.50;31113848;28;96703;-64
2022/09/30 20:35:08;;;;;;;27.40;17.20;;;;;;;8.07;74.16;99945.94;31112840;28;97202;-73
2022/09/30 20:50:09;;;;;;;27.30;17.20;;;;;;;8.16;75.16;99938.03;31111873;28;97455;-69
2022/09/30 21:05:09;;;;;;;30.23;19.03;;;;;;;8.27;75.86;99945.72;31111319;28;96725;-72
2022/09/30 21:20:10;;;;;;;34.88;18.23;;;;;;;8.37;75.71;99934.94;31109581;28;96702;-67
2022/09/30 21:35:12;;;;;;;29.52;18.45;;;;;;;8.42;76.20;99938.78;31109262;28;96772;-72
2022/09/30 21:50:12;;;;;;;42.50;21.90;;;;;;;8.50;76.38;99932.66;31107437;28;96709;-68
2022/09/30 22:05:19;;;;;;;38.85;21.48;;;;;;;8.51;76.50;99921.06;31106233;28;96700;-72
2022/09/30 22:20:20;;;;;;;31.60;18.20;;;;;;;8.52;76.83;99921.91;31105368;27;96642;-71
2022/09/30 22:50:46;;;;;;;38.23;20.97;;;;;;;8.53;77.09;99920.88;31085147;28;97206;-71
2022/09/30 23:05:47;;;;;;;34.40;20.80;;;;;;;8.42;77.55;99922.84;31101290;28;97077;-69
2022/09/30 23:20:57;;;;;;;28.73;17.75;;;;;;;8.22;77.80;99926.78;31100227;28;96725;-70
2022/09/30 23:36:01;;;;;;;37.17;19.47;;;;;;;7.79;77.86;99922.31;31099010;28;97450;-70
2022/09/30 23:51:03;;;;;;;33.13;19.97;;;;;;;7.65;78.70;99941.44;31118546;28;98019;-64
